Time;durP1;ratioP1;P1;durP2;ratioP2;P2;SDS_P1;SDS_P2;PMS_P1;PMS_P2;Temp;Humidity;BMP_temperature;BMP_pressure;BME280_temperature;BME280_humidity;BME280_pressure;Samples;Min_cycle;Max_cycle;Signal;HPM_P1;HPM_P2
2023/10/04 00:01:34;;;;;;;4.90;2.80;;;9.60;12.50;;;;;;5006854;28;20426;-81
2023/10/04 00:08:03;;;;;;;4.63;2.97;;;9.50;12.40;;;;;;5011781;28;20208;-82
2023/10/04 00:10:39;;;;;;;73.93;30.70;;;9.50;10.70;;;;;;5026476;28;20458;-79
2023/10/04 00:13:12;;;;;;;44.53;29.37;;;9.50;13.20;;;;;;5017634;28;20435;-83
2023/10/04 00:15:38;;;;;;;41.30;21.47;;;9.40;10.20;;;;;;5022090;28;20440;-82
2023/10/04 00:18:10;;;;;;;94.00;50.23;;;9.40;12.70;;;;;;5012731;28;20432;-86
2023/10/04 00:24:27;;;;;;;11.03;5.10;;;9.40;11.00;;;;;;5016502;28;20433;-82
2023/10/04 00:26:57;;;;;;;77.27;46.67;;;9.30;12.40;;;;;;5011823;28;20437;-78
2023/10/04 00:29:28;;;;;;;33.00;5.30;;;9.30;13.10;;;;;;5013420;28;22046;-78
2023/10/04 00:32:09;;;;;;;22.63;16.50;;;9.30;13.90;;;;;;5010478;28;20435;-78
2023/10/04 00:34:38;;;;;;;9.23;3.50;;;9.20;14.60;;;;;;5002635;28;20438;-78
2023/10/04 00:37:16;;;;;;;115.40;56.23;;;9.20;14.80;;;;;;5010804;28;20442;-78
2023/10/04 00:39:45;;;;;;;90.90;47.17;;;9.20;20.50;;;;;;5011919;28;20442;-78
2023/10/04 00:42:51;;;;;;;107.77;50.27;;;9.20;18.30;;;;;;5005243;28;20849;-82
2023/10/04 00:49:17;;;;;;;8.50;3.97;;;9.10;22.20;;;;;;5022272;28;20956;-82
2023/10/04 00:51:43;;;;;;;7.93;3.67;;;9.10;24.60;;;;;;5027414;28;20996;-82
2023/10/04 00:54:16;;;;;;;122.40;55.07;;;9.20;26.50;;;;;;5007146;28;20424;-82
2023/10/04 01:00:09;;;;;;;4.27;3.00;;;9.30;30.10;;;;;;5014353;28;20961;-82
2023/10/04 01:02:52;;;;;;;135.27;61.33;;;9.20;29.50;;;;;;5013459;28;20445;-83
2023/10/04 01:05:25;;;;;;;82.20;30.03;;;9.30;35.30;;;;;;5014114;28;21101;-83
2023/10/04 01:08:22;;;;;;;98.10;36.07;;;9.40;37.00;;;;;;5013714;28;20517;-83
2023/10/04 01:10:49;;;;;;;11.53;4.73;;;9.40;42.30;;;;;;5010434;28;20428;-82
2023/10/04 01:13:27;;;;;;;107.87;50.83;;;9.40;42.30;;;;;;5012485;28;20511;-83
2023/10/04 01:16:45;;;;;;;139.17;57.10;;;9.50;42.20;;;;;;5025568;28;20928;-82
2023/10/04 01:22:32;;;;;;;15.23;5.13;;;9.40;42.30;;;;;;4999858;28;20431;-82
2023/10/04 01:25:16;;;;;;;8.33;2.70;;;9.50;42.20;;;;;;5012261;28;20944;-83
2023/10/04 01:27:46;;;;;;;13.97;4.30;;;9.40;39.60;;;;;;5003922;28;20276;-78
2023/10/04 01:30:40;;;;;;;12.70;4.77;;;9.50;42.20;;;;;;4994050;28;20441;-79
2023/10/04 01:33:16;;;;;;;7.37;3.53;;;9.50;42.40;;;;;;5012523;28;21372;-78
2023/10/04 01:36:21;;;;;;;9.97;4.23;;;9.60;42.50;;;;;;5012297;28;20419;-79
2023/10/04 01:38:47;;;;;;;5.13;2.90;;;9.50;42.40;;;;;;5014394;28;20428;-78
2023/10/04 01:41:39;;;;;;;7.83;3.40;;;9.50;42.30;;;;;;5013550;28;20408;-78
2023/10/04 01:47:45;;;;;;;9.00;3.03;;;9.50;38.10;;;;;;5018277;28;20426;-82
2023/10/04 01:50:11;;;;;;;11.13;4.03;;;9.50;33.60;;;;;;5031070;28;20838;-83
2023/10/04 01:52:39;;;;;;;10.77;2.73;;;9.60;33.40;;;;;;5029524;28;20447;-83
2023/10/04 01:58:48;;;;;;;7.37;3.00;;;9.50;29.90;;;;;;5002160;28;20426;-83
2023/10/04 02:01:57;;;;;;;8.10;3.53;;;9.40;30.00;;;;;;5009691;28;20510;-83
2023/10/04 02:04:40;;;;;;;7.40;3.70;;;9.40;29.60;;;;;;5020112;28;20440;-81
2023/10/04 02:07:05;;;;;;;9.27;3.93;;;9.40;30.10;;;;;;5006827;28;20435;-82
2023/10/04 02:09:33;;;;;;;11.77;3.97;;;9.30;28.20;;;;;;5013463;28;20528;-83
2023/10/04 02:12:41;;;;;;;6.33;4.23;;;9.30;27.30;;;;;;5013189;28;20188;-82
2023/10/04 02:15:15;;;;;;;11.83;4.00;;;9.30;26.80;;;;;;5019873;28;20506;-83
2023/10/04 02:17:58;;;;;;;12.07;3.37;;;9.30;26.20;;;;;;5006961;28;20805;-83
2023/10/04 02:23:53;;;;;;;9.40;4.03;;;9.30;26.70;;;;;;5010295;28;20425;-83
2023/10/04 02:26:22;;;;;;;38.57;11.20;;;9.20;27.30;;;;;;5012831;28;20431;-82
2023/10/04 02:29:15;;;;;;;9.50;3.53;;;9.20;27.00;;;;;;5013384;28;20467;-78
2023/10/04 02:35:05;;;;;;;12.37;4.63;;;9.30;27.50;;;;;;5011783;28;20404;-78
2023/10/04 02:37:34;;;;;;;6.10;3.30;;;9.20;28.40;;;;;;4993867;28;20791;-78
2023/10/04 02:40:39;;;;;;;6.43;3.20;;;9.20;29.10;;;;;;5015018;28;20582;-78
2023/10/04 02:43:07;;;;;;;10.77;4.83;;;9.10;28.00;;;;;;5018107;28;20474;-82
2023/10/04 02:45:52;;;;;;;7.77;4.33;;;9.10;27.50;;;;;;5010209;28;20860;-83
2023/10/04 02:49:09;;;;;;;11.57;5.00;;;9.10;25.40;;;;;;5021770;28;20965;-83
2023/10/04 02:51:51;;;;;;;18.03;6.17;;;9.10;27.70;;;;;;5013177;28;20430;-82
2023/10/04 02:54:23;;;;;;;25.73;5.77;;;9.10;29.20;;;;;;5013301;28;20818;-82
2023/10/04 02:57:33;;;;;;;6.83;3.00;;;9.10;30.50;;;;;;5022630;28;20832;-82
2023/10/04 03:00:17;;;;;;;8.40;4.30;;;9.10;32.80;;;;;;5012692;28;20497;-82
2023/10/04 03:02:44;;;;;;;8.60;6.37;;;9.00;31.80;;;;;;5030082;28;21239;-83
2023/10/04 03:05:43;;;;;;;8.60;5.30;;;9.10;33.10;;;;;;5021090;28;20439;-82
2023/10/04 03:08:18;;;;;;;16.50;6.13;;;9.00;32.50;;;;;;5010298;28;20451;-82
2023/10/04 03:10:55;;;;;;;12.00;5.00;;;9.00;32.50;;;;;;5017558;28;20513;-82
2023/10/04 03:16:43;;;;;;;10.50;4.67;;;9.00;34.80;;;;;;5028228;28;20414;-78
2023/10/04 03:19:22;;;;;;;11.10;4.70;;;9.00;41.80;;;;;;5015029;28;20930;-78
2023/10/04 03:21:51;;;;;;;13.20;4.57;;;9.00;40.50;;;;;;5012041;28;20169;-78
2023/10/04 03:24:21;;;;;;;11.60;6.03;;;9.00;41.90;;;;;;5017260;28;20862;-78
2023/10/04 03:27:05;;;;;;;12.63;5.47;;;9.10;42.00;;;;;;5015784;28;20958;-78
2023/10/04 03:33:39;;;;;;;15.13;9.67;;;9.10;42.10;;;;;;5012199;28;20430;-78
2023/10/04 03:36:14;;;;;;;13.50;5.57;;;9.10;42.00;;;;;;5008916;28;20420;-79
2023/10/04 03:38:51;;;;;;;8.93;5.00;;;9.20;42.10;;;;;;5015828;28;20427;-78
2023/10/04 03:45:13;;;;;;;14.80;5.37;;;9.20;42.20;;;;;;5009414;28;20431;-88
2023/10/04 03:47:57;;;;;;;43.33;9.77;;;9.20;42.10;;;;;;5009495;28;20441;-85
2023/10/04 03:50:57;;;;;;;30.00;5.30;;;9.90;42.60;;;;;;5012181;28;20443;-85
2023/10/04 03:53:33;;;;;;;21.60;9.20;;;9.30;42.30;;;;;;5016369;28;21472;-85
2023/10/04 03:56:23;;;;;;;18.03;5.50;;;9.30;39.00;;;;;;5026933;28;20435;-85
2023/10/04 04:02:11;;;;;;;20.67;6.90;;;9.30;42.20;;;;;;5031531;28;20426;-85
2023/10/04 04:08:13;;;;;;;9.47;4.53;;;9.40;42.30;;;;;;5002170;28;20199;-85
2023/10/04 04:14:07;;;;;;;20.50;4.60;;;9.40;46.40;;;;;;5011060;28;20466;-85
2023/10/04 04:16:46;;;;;;;7.73;4.17;;;9.40;42.30;;;;;;5019377;28;20415;-86
2023/10/04 04:22:35;;;;;;;11.07;7.80;;;9.40;42.40;;;;;;5009685;28;20546;-85
2023/10/04 04:25:15;;;;;;;9.20;3.77;;;9.50;39.20;;;;;;5011557;28;20465;-85
2023/10/04 04:27:53;;;;;;;20.17;5.90;;;9.40;42.40;;;;;;5013821;28;20445;-85
2023/10/04 04:30:27;;;;;;;9.03;4.70;;;9.40;42.30;;;;;;5012886;28;20456;-84
2023/10/04 04:33:15;;;;;;;9.47;5.70;;;9.50;42.40;;;;;;5011413;28;20432;-86
2023/10/04 04:38:24;;;;;;;15.30;3.23;;;9.50;39.20;;;;;;5017190;28;21046;-85
2023/10/04 04:47:34;;;;;;;182.87;38.00;;;9.50;42.30;;;;;;5020326;28;20419;-95
2023/10/04 04:53:56;;;;;;;180.30;37.37;;;9.60;42.50;;;;;;5020187;28;20160;-95
2023/10/04 04:59:44;;;;;;;180.70;40.17;;;9.60;42.60;;;;;;5017117;28;20581;-85
2023/10/04 05:02:16;;;;;;;195.67;46.70;;;9.60;42.10;;;;;;5011385;28;20527;-85
2023/10/04 05:05:33;;;;;;;147.53;35.70;;;11.00;42.40;;;;;;5024165;28;20192;-85
2023/10/04 05:08:22;;;;;;;255.50;46.70;;;9.60;42.50;;;;;;5002608;28;20444;-82
2023/10/04 05:10:52;;;;;;;263.73;47.37;;;9.60;42.50;;;;;;5019470;28;20467;-88
2023/10/04 05:13:22;;;;;;;7.13;6.57;;;10.30;42.00;;;;;;5013498;28;20435;-85
2023/10/04 05:15:51;;;;;;;13.00;8.70;;;9.70;42.30;;;;;;5010077;28;20954;-81
2023/10/04 05:18:22;;;;;;;217.60;44.73;;;;;;;;;;5014521;28;20449;-84
2023/10/04 05:20:55;;;;;;;197.00;39.47;;;9.60;37.40;;;;;;5016756;28;21033;-84
2023/10/04 05:23:45;;;;;;;249.87;46.77;;;9.70;36.00;;;;;;5015253;28;20447;-84
2023/10/04 05:26:57;;;;;;;305.07;53.90;;;9.60;32.70;;;;;;5012451;28;20459;-84
2023/10/04 05:29:42;;;;;;;262.90;53.33;;;9.70;37.60;;;;;;5020075;28;20467;-83
2023/10/04 05:32:08;;;;;;;283.80;55.17;;;9.70;34.70;;;;;;5008920;28;20475;-83
2023/10/04 05:34:33;;;;;;;315.83;58.13;;;9.80;34.40;;;;;;5007942;28;20490;-83
2023/10/04 05:37:04;;;;;;;212.70;44.13;;;9.70;34.40;;;;;;5008581;28;20851;-83
2023/10/04 05:39:34;;;;;;;220.83;43.47;;;9.60;33.40;;;;;;5010813;28;20244;-84
2023/10/04 05:42:16;;;;;;;240.87;49.97;;;9.60;33.50;;;;;;4993462;28;20409;-84
2023/10/04 05:45:27;;;;;;;204.10;43.57;;;9.70;36.80;;;;;;5012387;28;20487;-85
2023/10/04 05:48:21;;;;;;;348.77;75.90;;;9.70;32.60;;;;;;5011552;28;20435;-84
2023/10/04 05:50:54;;;;;;;286.37;74.20;;;9.70;30.00;;;;;;5010954;28;20787;-84
2023/10/04 05:53:52;;;;;;;225.30;47.50;;;9.70;31.40;;;;;;5006398;28;20445;-83
2023/10/04 05:56:40;;;;;;;119.23;37.20;;;9.70;30.00;;;;;;5005553;28;20424;-82
2023/10/04 05:59:10;;;;;;;87.60;30.20;;;9.70;31.00;;;;;;5009666;28;20458;-82
2023/10/04 06:01:41;;;;;;;164.50;42.20;;;9.70;33.00;;;;;;5009346;28;20482;-83
2023/10/04 06:04:42;;;;;;;42.73;16.33;;;9.70;32.40;;;;;;5011118;28;20482;-83
2023/10/04 06:07:22;;;;;;;86.30;32.07;;;9.80;33.40;;;;;;5015988;28;20864;-83
2023/10/04 06:09:58;;;;;;;19.63;5.90;;;9.70;31.20;;;;;;5010198;28;20506;-82
2023/10/04 06:12:35;;;;;;;177.87;41.90;;;9.70;32.90;;;;;;5007439;28;20435;-82
2023/10/04 06:15:33;;;;;;;166.90;37.20;;;9.70;33.40;;;;;;5008551;28;20433;-82
2023/10/04 06:18:00;;;;;;;171.63;39.00;;;9.80;32.30;;;;;;5013784;28;20435;-81
2023/10/04 06:21:05;;;;;;;291.00;52.77;;;9.70;29.20;;;;;;5014450;28;21466;-82
2023/10/04 06:23:40;;;;;;;349.87;64.13;;;9.70;28.40;;;;;;5014973;28;20423;-82
2023/10/04 06:26:05;;;;;;;179.17;63.47;;;9.70;26.80;;;;;;5015224;28;20434;-82
2023/10/04 06:29:11;;;;;;;356.27;87.80;;;9.70;26.50;;;;;;5013406;28;21057;-82
2023/10/04 06:32:04;;;;;;;307.83;56.00;;;9.70;26.50;;;;;;5010609;28;20192;-83
2023/10/04 06:34:29;;;;;;;283.07;57.67;;;9.70;27.10;;;;;;5010621;28;20439;-82
2023/10/04 06:37:03;;;;;;;239.70;46.67;;;9.70;29.20;;;;;;5018181;28;20438;-83
2023/10/04 06:39:45;;;;;;;225.13;44.97;;;9.80;32.70;;;;;;5029516;28;20210;-83
2023/10/04 06:45:46;;;;;;;220.17;48.63;;;9.90;42.70;;;;;;5024424;28;20429;-82
2023/10/04 06:48:16;;;;;;;7.93;2.80;;;11.00;42.60;;;;;;5013543;28;20481;-82
2023/10/04 06:50:49;;;;;;;262.20;51.13;;;10.00;38.70;;;;;;5014048;28;20455;-82
2023/10/04 06:53:34;;;;;;;161.70;35.57;;;11.00;42.80;;;;;;5013450;28;20471;-82
2023/10/04 06:56:04;;;;;;;277.07;55.13;;;11.00;42.60;;;;;;5015320;28;20435;-82
2023/10/04 06:58:34;;;;;;;146.90;37.17;;;10.40;42.10;;;;;;5014296;28;20435;-82
2023/10/04 07:01:39;;;;;;;157.40;38.70;;;10.60;42.30;;;;;;5015754;28;20958;-82
2023/10/04 07:04:27;;;;;;;113.43;34.63;;;10.50;42.30;;;;;;5011292;28;20430;-82
2023/10/04 07:07:27;;;;;;;182.30;45.97;;;10.60;42.40;;;;;;5023656;28;20439;-83
2023/10/04 07:09:57;;;;;;;203.17;48.90;;;10.70;42.60;;;;;;5016600;28;20525;-83
2023/10/04 07:15:46;;;;;;;271.53;56.07;;;10.90;42.90;;;;;;5015990;28;20446;-82
2023/10/04 07:18:12;;;;;;;186.07;44.10;;;11.10;43.10;;;;;;5013598;28;20428;-82
2023/10/04 07:21:21;;;;;;;11.63;3.53;;;11.10;43.30;;;;;;5014922;28;20452;-82
2023/10/04 07:23:47;;;;;;;227.33;44.70;;;11.30;43.00;;;;;;4992868;28;20463;-83
2023/10/04 07:26:45;;;;;;;147.03;40.70;;;11.40;43.30;;;;;;4994630;28;20459;-82
2023/10/04 07:30:04;;;;;;;19.63;6.37;;;11.50;43.20;;;;;;4995460;28;20204;-82
2023/10/04 07:32:41;;;;;;;15.30;5.27;;;11.60;43.50;;;;;;5010780;28;20432;-82
2023/10/04 07:35:16;;;;;;;320.10;61.97;;;11.70;43.40;;;;;;5010060;28;20443;-82
2023/10/04 07:38:27;;;;;;;11.13;4.47;;;11.80;43.40;;;;;;4997409;28;20435;-82
2023/10/04 07:40:59;;;;;;;31.30;14.00;;;11.90;43.60;;;;;;4993143;28;20530;-82
2023/10/04 07:43:35;;;;;;;6.47;3.00;;;12.40;44.00;;;;;;4981401;28;20528;-82
2023/10/04 07:50:04;;;;;;;13.03;4.60;;;12.20;43.80;;;;;;5011219;28;20865;-83
2023/10/04 07:55:58;;;;;;;12.67;4.70;;;12.40;30.20;;;;;;5010231;28;20425;-83
2023/10/04 07:58:28;;;;;;;29.00;12.50;;;12.50;23.40;;;;;;5026017;28;20490;-82
2023/10/04 08:01:39;;;;;;;15.63;8.67;;;12.50;20.40;;;;;;5014301;28;20916;-83
2023/10/04 08:04:39;;;;;;;6.13;4.07;;;12.50;20.20;;;;;;5011534;28;20403;-83
2023/10/04 08:07:12;;;;;;;413.63;78.37;;;12.60;17.30;;;;;;4996348;28;20926;-88
2023/10/04 08:09:46;;;;;;;21.20;6.63;;;12.70;14.20;;;;;;5019780;28;20471;-89
2023/10/04 08:12:11;;;;;;;16.57;7.00;;;13.00;7.10;;;;;;5018113;28;20455;-89
2023/10/04 08:15:35;;;;;;;29.27;10.87;;;13.00;8.10;;;;;;5010870;28;21021;-88
2023/10/04 08:18:13;;;;;;;47.30;9.50;;;13.00;1.20;;;;;;5004847;28;20177;-87
2023/10/04 08:20:42;;;;;;;12.97;4.67;;;13.10;1.00;;;;;;5012423;28;20416;-89
2023/10/04 08:23:22;;;;;;;10.77;3.97;;;13.20;1.00;;;;;;5016519;28;20528;-89
2023/10/04 08:26:25;;;;;;;464.50;98.10;;;13.30;1.00;;;;;;5019672;28;20547;-89
2023/10/04 08:29:27;;;;;;;10.13;6.30;;;13.30;1.00;;;;;;5006619;28;20562;-88
2023/10/04 08:32:11;;;;;;;11.60;7.20;;;13.30;1.00;;;;;;5021354;28;20431;-88
2023/10/04 08:34:40;;;;;;;8.83;5.27;;;13.30;1.00;;;;;;5043220;28;20554;-88
2023/10/04 08:37:06;;;;;;;10.73;4.63;;;13.50;1.00;;;;;;5012929;28;20515;-88
2023/10/04 08:40:04;;;;;;;21.60;15.50;;;13.50;1.00;;;;;;5013359;28;20497;-88
2023/10/04 08:43:09;;;;;;;15.17;9.87;;;13.60;1.00;;;;;;5004105;28;20177;-88
2023/10/04 08:45:47;;;;;;;12.23;5.00;;;14.00;1.00;;;;;;5023368;28;20437;-88
2023/10/04 08:48:53;;;;;;;14.53;4.80;;;14.00;1.00;;;;;;5014020;28;20435;-88
2023/10/04 08:51:51;;;;;;;6.83;3.50;;;14.00;1.00;;;;;;5025123;28;20432;-87
2023/10/04 08:54:24;;;;;;;7.80;4.77;;;14.10;1.00;;;;;;5011952;28;20414;-87
2023/10/04 08:57:04;;;;;;;17.90;13.80;;;14.20;1.00;;;;;;5028063;28;20478;-88
2023/10/04 08:59:58;;;;;;;16.20;14.50;;;14.20;1.00;;;;;;5020514;28;20789;-88
2023/10/04 09:02:29;;;;;;;41.07;28.37;;;14.30;1.00;;;;;;5019775;28;20422;-87
2023/10/04 09:04:58;;;;;;;30.53;9.63;;;14.30;1.00;;;;;;5012191;28;20460;-87
2023/10/04 09:08:04;;;;;;;15.20;6.90;;;14.40;1.00;;;;;;5013876;28;20503;-87
2023/10/04 09:10:55;;;;;;;18.73;6.60;;;14.60;1.00;;;;;;5029275;28;20889;-89
2023/10/04 09:13:22;;;;;;;15.40;12.60;;;14.70;1.00;;;;;;5027700;28;20530;-87
2023/10/04 09:15:52;;;;;;;24.93;12.30;;;14.80;1.00;;;;;;5022635;28;20854;-87
2023/10/04 09:18:29;;;;;;;19.80;16.87;;;14.90;1.00;;;;;;5016493;28;20399;-87
2023/10/04 09:21:21;;;;;;;4.43;3.07;;;15.00;1.00;;;;;;5011788;28;20937;-88
2023/10/04 09:24:10;;;;;;;10.73;9.20;;;15.00;1.00;;;;;;5011130;28;20421;-88
2023/10/04 09:29:59;;;;;;;38.33;29.33;;;15.10;1.00;;;;;;5017537;28;20483;-88
2023/10/04 09:32:58;;;;;;;88.93;63.90;;;15.50;1.00;;;;;;5013556;28;20512;-88
2023/10/04 09:35:57;;;;;;;48.00;40.53;;;15.70;1.00;;;;;;5012798;28;20525;-88
2023/10/04 09:38:35;;;;;;;22.47;15.77;;;16.00;1.00;;;;;;5030745;28;20406;-88
2023/10/04 09:41:16;;;;;;;27.70;19.33;;;15.90;1.00;;;;;;5010998;28;22069;-87
2023/10/04 09:43:58;;;;;;;46.87;41.93;;;16.00;1.00;;;;;;5021957;28;20412;-88
2023/10/04 09:47:15;;;;;;;99.43;71.43;;;15.90;1.00;;;;;;5012150;28;20482;-87
2023/10/04 09:49:49;;;;;;;83.43;59.87;;;15.80;1.00;;;;;;5014042;28;20468;-87
2023/10/04 09:53:09;;;;;;;53.27;47.27;;;15.90;1.00;;;;;;4998376;28;20434;-87
2023/10/04 09:56:28;;;;;;;91.87;61.03;;;15.80;1.00;;;;;;5008464;28;20507;-88
2023/10/04 09:59:11;;;;;;;71.90;54.07;;;15.60;1.00;;;;;;5025281;28;20460;-87
2023/10/04 10:02:21;;;;;;;46.57;40.87;;;15.60;1.00;;;;;;5005146;28;20437;-88
2023/10/04 10:04:59;;;;;;;82.73;55.50;;;15.50;1.00;;;;;;5019984;28;20430;-87
2023/10/04 10:07:36;;;;;;;35.63;31.90;;;15.50;1.00;;;;;;5014070;28;20410;-88
2023/10/04 10:10:51;;;;;;;29.43;23.47;;;15.30;1.00;;;;;;5011948;28;20472;-88
2023/10/04 10:13:24;;;;;;;32.47;29.07;;;15.20;1.00;;;;;;5028437;28;20936;-87
2023/10/04 10:15:53;;;;;;;45.43;37.30;;;15.30;1.00;;;;;;5027281;28;20466;-86
2023/10/04 10:18:34;;;;;;;53.63;34.90;;;15.20;1.00;;;;;;5012245;28;20402;-83
2023/10/04 10:20:59;;;;;;;24.73;4.90;;;15.10;1.00;;;;;;5005305;28;20451;-89
2023/10/04 10:23:25;;;;;;;19.33;5.57;;;15.10;1.00;;;;;;5020837;28;20493;-84
2023/10/04 10:26:27;;;;;;;16.47;11.27;;;15.10;1.00;;;;;;5013053;28;20189;-83
2023/10/04 10:29:20;;;;;;;23.10;8.00;;;15.30;1.00;;;;;;4995068;28;20236;-88
2023/10/04 10:31:53;;;;;;;32.83;28.00;;;15.60;1.00;;;;;;4998155;28;20430;-89
2023/10/04 10:34:50;;;;;;;13.00;3.93;;;15.60;1.00;;;;;;4994030;28;20407;-88
2023/10/04 10:40:41;;;;;;;30.93;6.33;;;16.00;1.00;;;;;;5009570;28;20390;-87
2023/10/04 10:43:51;;;;;;;7.40;1.93;;;16.00;1.00;;;;;;5010084;28;20487;-87
2023/10/04 10:46:51;;;;;;;3.53;1.67;;;16.10;1.00;;;;;;4996618;28;20440;-88
2023/10/04 10:49:36;;;;;;;13.53;3.03;;;16.20;1.00;;;;;;4989517;28;20467;-86
2023/10/04 10:52:04;;;;;;;10.07;3.10;;;16.30;1.00;;;;;;5010957;28;20449;-87
2023/10/04 10:54:40;;;;;;;142.37;88.40;;;16.40;1.00;;;;;;4990987;28;20408;-83
2023/10/04 10:57:23;;;;;;;12.30;2.73;;;16.40;1.00;;;;;;5001080;28;20510;-84
2023/10/04 11:03:33;;;;;;;211.13;79.53;;;16.40;1.00;;;;;;5015325;28;20900;-88
2023/10/04 11:06:22;;;;;;;11.60;2.00;;;16.60;1.00;;;;;;5016226;28;20760;-89
2023/10/04 11:08:48;;;;;;;7.40;2.40;;;16.90;1.00;;;;;;5009036;28;20478;-89
2023/10/04 11:11:14;;;;;;;54.43;16.90;;;17.30;1.00;;;;;;4996424;28;20777;-88
2023/10/04 11:13:43;;;;;;;9.13;3.43;;;17.50;1.00;;;;;;5021011;28;20187;-88
2023/10/04 11:16:52;;;;;;;16.20;4.30;;;18.10;1.00;;;;;;5025846;28;20182;-88
2023/10/04 11:19:22;;;;;;;13.03;4.50;;;18.20;1.00;;;;;;5030320;28;20428;-84
2023/10/04 11:22:11;;;;;;;15.67;5.13;;;18.70;1.00;;;;;;5014762;28;20402;-85
2023/10/04 11:24:40;;;;;;;5.87;2.63;;;18.70;1.00;;;;;;5015718;28;20478;-85
2023/10/04 11:27:10;;;;;;;19.13;4.37;;;18.60;1.00;;;;;;5023218;28;20418;-84
2023/10/04 11:36:25;;;;;;;20.53;4.13;;;18.60;1.00;;;;;;5011710;28;20474;-89
2023/10/04 11:38:59;;;;;;;41.70;37.77;;;18.30;1.00;;;;;;5006696;28;20443;-88
2023/10/04 11:45:24;;;;;;;10.90;2.53;;;18.60;1.00;;;;;;5010033;28;20921;-88
2023/10/04 11:51:32;;;;;;;13.60;3.10;;;18.90;1.00;;;;;;4994108;28;20402;-84
2023/10/04 11:54:46;;;;;;;15.37;4.80;;;18.80;1.00;;;;;;4977171;28;20536;-83
2023/10/04 11:57:23;;;;;;;18.07;4.40;;;19.10;1.00;;;;;;4993925;28;20433;-83
2023/10/04 12:00:26;;;;;;;91.53;81.87;;;19.30;1.00;;;;;;4993863;28;20511;-84
2023/10/04 12:02:59;;;;;;;8.83;2.43;;;19.40;1.00;;;;;;4954718;28;20409;-84
2023/10/04 12:06:03;;;;;;;5.47;2.13;;;19.60;1.00;;;;;;4974876;28;20411;-84
2023/10/04 12:08:30;;;;;;;22.30;13.53;;;19.80;1.00;;;;;;4957557;28;20465;-84
2023/10/04 12:10:58;;;;;;;5.97;1.93;;;19.80;1.00;;;;;;4961179;28;20450;-84
2023/10/04 12:13:34;;;;;;;18.33;4.00;;;19.80;1.00;;;;;;4980479;28;20443;-82
2023/10/04 12:16:21;;;;;;;7.30;2.47;;;19.70;1.00;;;;;;4957076;28;20441;-84
2023/10/04 12:19:04;;;;;;;11.47;2.37;;;19.40;1.00;;;;;;4975360;28;20405;-87
2023/10/04 12:22:16;;;;;;;15.50;2.73;;;19.30;1.00;;;;;;4975453;28;20446;-88
2023/10/04 12:24:47;;;;;;;295.07;201.30;;;19.30;1.00;;;;;;4964377;28;21260;-86
2023/10/04 12:27:21;;;;;;;17.47;4.00;;;19.20;1.00;;;;;;4965893;28;20432;-87
2023/10/04 12:33:22;;;;;;;164.50;127.53;;;19.60;1.00;;;;;;4990987;28;20418;-82
2023/10/04 12:35:58;;;;;;;8.43;2.10;;;19.90;1.00;;;;;;4989607;28;20423;-81
2023/10/04 12:38:29;;;;;;;14.67;3.87;;;19.60;1.00;;;;;;4988885;28;20475;-82
2023/10/04 12:40:54;;;;;;;16.10;4.07;;;19.60;1.00;;;;;;5015026;28;20429;-82
2023/10/04 12:43:20;;;;;;;22.17;4.90;;;19.70;1.00;;;;;;5013170;28;21081;-81
2023/10/04 12:46:11;;;;;;;11.53;3.07;;;19.70;1.00;;;;;;5013189;28;20258;-81
2023/10/04 12:48:47;;;;;;;12.10;2.97;;;19.90;1.00;;;;;;5017241;28;20554;-81
2023/10/04 12:51:16;;;;;;;17.20;3.17;;;19.90;1.00;;;;;;5021198;28;20448;-81
2023/10/04 12:54:03;;;;;;;10.27;3.50;;;20.10;1.00;;;;;;5020312;28;20450;-81
2023/10/04 12:56:57;;;;;;;9.03;3.07;;;20.10;1.00;;;;;;5029306;28;20428;-83
2023/10/04 12:59:45;;;;;;;10.40;3.10;;;20.30;1.00;;;;;;5031671;28;20437;-83
2023/10/04 13:02:43;;;;;;;20.27;3.90;;;20.60;1.00;;;;;;5005129;28;20433;-83
2023/10/04 13:05:14;;;;;;;15.60;3.23;;;20.60;1.00;;;;;;5013266;28;21028;-84
2023/10/04 13:07:40;;;;;;;8.53;2.73;;;20.60;1.00;;;;;;5012081;28;20443;-83
2023/10/04 13:10:36;;;;;;;8.33;3.13;;;20.50;1.00;;;;;;5013768;28;20523;-82
2023/10/04 13:13:51;;;;;;;6.77;2.50;;;20.50;1.00;;;;;;5014318;28;20430;-82
2023/10/04 13:16:22;;;;;;;22.20;4.50;;;20.60;1.00;;;;;;5012106;28;20435;-81
2023/10/04 13:19:10;;;;;;;9.47;3.00;;;20.70;1.00;;;;;;5013315;28;20451;-88
2023/10/04 13:22:03;;;;;;;9.90;3.30;;;20.80;1.00;;;;;;5015310;28;20445;-87
2023/10/04 13:24:51;;;;;;;18.87;3.30;;;20.90;1.00;;;;;;5026495;28;20422;-87
2023/10/04 13:27:35;;;;;;;13.20;2.73;;;20.90;1.00;;;;;;5011762;28;20453;-87
2023/10/04 13:30:06;;;;;;;11.57;3.57;;;20.70;1.00;;;;;;5007424;28;20467;-89
2023/10/04 13:32:33;;;;;;;16.23;3.97;;;20.60;1.00;;;;;;5019348;28;20489;-89
2023/10/04 13:35:51;;;;;;;12.60;3.20;;;20.90;1.00;;;;;;5012591;28;20442;-89
2023/10/04 13:38:45;;;;;;;10.30;2.83;;;21.10;1.00;;;;;;5017729;28;20447;-89
2023/10/04 13:41:40;;;;;;;10.83;3.13;;;21.00;1.00;;;;;;5021180;28;20448;-90
2023/10/04 13:44:18;;;;;;;16.07;5.30;;;21.00;1.00;;;;;;5016423;28;20473;-90
2023/10/04 13:46:52;;;;;;;13.80;3.57;;;20.90;1.00;;;;;;5011558;28;20949;-89
2023/10/04 13:49:18;;;;;;;11.60;3.50;;;20.70;1.00;;;;;;5020243;28;20477;-89
2023/10/04 13:51:46;;;;;;;9.20;3.00;;;20.60;1.00;;;;;;5013162;28;20423;-88
2023/10/04 13:54:57;;;;;;;9.90;3.03;;;20.70;1.00;;;;;;5004964;28;20976;-87
2023/10/04 14:00:46;;;;;;;29.87;22.63;;;20.60;1.00;;;;;;5012680;28;20469;-89
2023/10/04 14:03:28;;;;;;;22.40;8.10;;;20.50;1.00;;;;;;5010866;28;20520;-87
2023/10/04 14:06:10;;;;;;;108.70;98.00;;;20.30;1.00;;;;;;5021071;28;20424;-87
2023/10/04 14:08:42;;;;;;;21.03;10.37;;;20.20;1.00;;;;;;5012457;28;20799;-88
2023/10/04 14:14:33;;;;;;;74.60;67.23;;;20.00;1.00;;;;;;5004558;28;20420;-87
2023/10/04 14:17:08;;;;;;;24.20;17.27;;;20.10;1.00;;;;;;5019111;28;20442;-86
2023/10/04 14:19:36;;;;;;;29.77;25.40;;;20.10;1.00;;;;;;5009930;28;20414;-87
2023/10/04 14:22:16;;;;;;;7.90;3.10;;;20.10;1.00;;;;;;5021304;28;20484;-87
2023/10/04 14:24:47;;;;;;;22.50;20.47;;;20.20;1.00;;;;;;5015195;28;20791;-88
2023/10/04 14:27:16;;;;;;;11.73;3.50;;;20.20;1.00;;;;;;5013773;28;20940;-87
2023/10/04 14:29:52;;;;;;;53.13;48.07;;;20.30;1.00;;;;;;5011074;28;20914;-87
2023/10/04 14:32:30;;;;;;;19.13;6.73;;;20.20;1.00;;;;;;5012976;28;20501;-89
2023/10/04 14:34:58;;;;;;;13.13;3.63;;;19.90;1.00;;;;;;5008427;28;20441;-83
2023/10/04 14:37:40;;;;;;;43.17;16.77;;;19.90;1.00;;;;;;5015081;28;20430;-81
2023/10/04 14:40:42;;;;;;;20.73;5.77;;;19.90;1.00;;;;;;5015574;28;20958;-81
2023/10/04 14:43:10;;;;;;;10.33;4.57;;;19.90;1.00;;;;;;5014107;28;20884;-81
2023/10/04 14:46:03;;;;;;;119.33;106.83;;;19.80;1.00;;;;;;5010181;28;20516;-80
2023/10/04 14:48:40;;;;;;;172.43;146.27;;;20.00;1.00;;;;;;5031559;28;20436;-82
2023/10/04 14:51:10;;;;;;;88.37;78.87;;;20.20;1.00;;;;;;5025548;28;20944;-88
2023/10/04 14:53:36;;;;;;;32.07;27.00;;;20.10;1.00;;;;;;5031456;28;21062;-85
2023/10/04 14:56:16;;;;;;;22.00;4.97;;;20.30;1.00;;;;;;5010548;28;20504;-84
2023/10/04 14:59:09;;;;;;;10.80;4.37;;;20.30;1.00;;;;;;5015604;28;20187;-85
2023/10/04 15:02:09;;;;;;;18.33;4.40;;;20.20;1.00;;;;;;5015692;28;20489;-86
2023/10/04 15:05:10;;;;;;;18.40;4.90;;;19.90;1.00;;;;;;5013283;28;20496;-85
2023/10/04 15:11:29;;;;;;;16.73;8.07;;;19.70;1.00;;;;;;5015344;28;20458;-87
2023/10/04 15:14:46;;;;;;;61.87;53.57;;;19.70;1.00;;;;;;5014683;28;20452;-85
2023/10/04 15:17:17;;;;;;;17.83;4.70;;;19.50;1.00;;;;;;5017026;28;20434;-86
2023/10/04 15:19:47;;;;;;;126.00;102.07;;;19.30;1.00;;;;;;5029474;28;20453;-88
2023/10/04 15:22:40;;;;;;;39.17;33.07;;;19.20;1.00;;;;;;5012502;28;20523;-87
2023/10/04 15:28:35;;;;;;;167.60;125.23;;;19.10;1.00;;;;;;5014340;28;21013;-86
2023/10/04 15:31:12;;;;;;;42.27;23.23;;;19.20;1.00;;;;;;5012747;28;20902;-86
2023/10/04 15:33:53;;;;;;;29.03;5.60;;;19.20;1.00;;;;;;5010317;28;20467;-87
2023/10/04 15:36:19;;;;;;;17.73;5.03;;;19.50;1.00;;;;;;5022945;28;20443;-82
2023/10/04 15:39:31;;;;;;;13.40;4.03;;;19.60;1.00;;;;;;5019744;28;20447;-81
2023/10/04 15:42:10;;;;;;;15.50;3.40;;;19.70;1.00;;;;;;5024346;28;20201;-81
2023/10/04 15:45:04;;;;;;;16.17;4.03;;;19.80;1.00;;;;;;5008901;28;20800;-81
2023/10/04 15:48:11;;;;;;;19.37;6.27;;;19.50;1.00;;;;;;5011973;28;20911;-81
2023/10/04 15:50:47;;;;;;;16.97;4.40;;;19.50;1.00;;;;;;5002740;28;20508;-82
2023/10/04 15:53:16;;;;;;;13.40;3.70;;;19.50;1.00;;;;;;5011417;28;20921;-89
2023/10/04 15:56:10;;;;;;;10.90;3.60;;;19.40;1.00;;;;;;5016410;28;20432;-87
2023/10/04 15:58:36;;;;;;;10.43;3.43;;;19.30;1.00;;;;;;5017998;28;20408;-87
2023/10/04 16:01:12;;;;;;;29.40;6.20;;;19.00;1.00;;;;;;5013082;28;20417;-88
2023/10/04 16:03:40;;;;;;;12.47;3.67;;;18.80;1.00;;;;;;5010993;28;20459;-87